Joetown, Iowa
Current Conditions -  °F | °C
As of 10:15 AM on Saturday 25 Oct 2014 (Local Time) from KAWG Reporting Station
Clear Clear  
Wind Chill: 63°   Ceiling: Unl
Heat Index: 63°   Visibility: 10mi
Dew Point: 52°   Wind: 9mph
Humidity: 68%   Direction: 360°N
Pressure: 30.06"   Gusts: NA
Location:  41.4676°N, 91.7053°W
Report Text: KAWG 251515Z AUTO 36008KT 10SM CLR 17/11 A3006 RMK AO2
Loading
Personal Weather Stations






























Interactive Weather Map
Tropical Storm Tracking
New forecast layout! Learn more

10-Day Weather Forecast

Advertisements
Track Severe Weather on mobile